Time;durP1;ratioP1;P1;durP2;ratioP2;P2;SDS_P1;SDS_P2;PMS_P1;PMS_P2;Temp;Humidity;BMP_temperature;BMP_pressure;BME280_temperature;BME280_humidity;BME280_pressure;Samples;Min_cycle;Max_cycle;Signal;HPM_P1;HPM_P2
2023/09/05 00:01:32;;;;;;;6.57;5.45;;;14.50;99.90;;;;;;5101504;28;20060;-58
2023/09/05 00:03:57;;;;;;;6.95;5.05;;;14.50;99.90;;;;;;5095863;28;20159;-57
2023/09/05 00:06:24;;;;;;;5.82;4.60;;;14.50;99.90;;;;;;5104330;28;20130;-57
2023/09/05 00:08:50;;;;;;;5.63;4.38;;;14.50;99.90;;;;;;5084156;28;20525;-58
2023/09/05 00:11:15;;;;;;;5.45;5.00;;;14.50;99.90;;;;;;5100244;28;20078;-57
2023/09/05 00:13:42;;;;;;;5.95;5.35;;;14.50;99.90;;;;;;5097026;28;20055;-56
2023/09/05 00:16:08;;;;;;;5.28;4.80;;;14.50;99.90;;;;;;5099357;28;20083;-57
2023/09/05 00:18:33;;;;;;;6.00;5.35;;;14.50;99.90;;;;;;5086238;28;20087;-59
2023/09/05 00:23:25;;;;;;;6.13;5.53;;;14.50;99.90;;;;;;5102786;28;20561;-58
2023/09/05 00:25:50;;;;;;;6.88;6.18;;;14.50;99.90;;;;;;5096812;28;20400;-57
2023/09/05 00:28:18;;;;;;;9.10;6.65;;;14.50;99.90;;;;;;5102882;28;20062;-57
2023/09/05 00:30:45;;;;;;;7.03;6.18;;;14.40;99.90;;;;;;5103110;28;20425;-56
2023/09/05 00:33:11;;;;;;;9.05;5.82;;;14.40;99.90;;;;;;5102844;28;20483;-56
2023/09/05 00:35:36;;;;;;;7.03;5.82;;;14.30;99.90;;;;;;5099269;28;20076;-59
2023/09/05 00:38:04;;;;;;;5.63;5.13;;;14.30;99.90;;;;;;5071310;27;20138;-57
2023/09/05 00:40:30;;;;;;;6.00;5.43;;;14.30;99.90;;;;;;5099087;27;20063;-57
2023/09/05 00:42:56;;;;;;;6.45;5.38;;;14.20;99.90;;;;;;5090658;28;20060;-57
2023/09/05 00:45:25;;;;;;;6.30;5.43;;;14.20;99.90;;;;;;5052212;28;1129983;-58
2023/09/05 00:47:51;;;;;;;5.90;5.30;;;14.20;99.90;;;;;;5110001;27;20052;-57
2023/09/05 00:50:18;;;;;;;6.03;5.43;;;14.20;99.90;;;;;;5077245;28;20104;-59
2023/09/05 00:52:47;;;;;;;7.20;6.50;;;14.20;99.90;;;;;;5066235;28;20059;-59
2023/09/05 00:55:13;;;;;;;7.18;6.22;;;14.10;99.90;;;;;;5073469;28;20098;-57
2023/09/05 00:57:40;;;;;;;6.97;6.28;;;14.10;99.90;;;;;;5077403;28;20139;-60
2023/09/05 01:00:08;;;;;;;7.03;6.32;;;14.10;99.90;;;;;;5084860;28;20405;-59
2023/09/05 01:02:35;;;;;;;7.50;6.68;;;14.00;99.90;;;;;;5098230;28;20059;-58
2023/09/05 01:05:05;;;;;;;11.93;7.78;;;14.00;99.90;;;;;;5107534;28;20058;-60
2023/09/05 01:07:52;;;;;;;7.68;6.88;;;14.10;99.90;;;;;;5095824;28;20116;-60
2023/09/05 01:10:27;;;;;;;7.80;6.32;;;14.10;99.90;;;;;;5087014;28;20524;-60
2023/09/05 01:12:53;;;;;;;8.13;7.30;;;14.10;99.90;;;;;;5091394;28;20131;-57
2023/09/05 01:15:18;;;;;;;7.80;7.07;;;14.10;99.90;;;;;;5103227;28;20154;-56
2023/09/05 01:17:44;;;;;;;9.88;8.15;;;14.00;99.90;;;;;;5084263;28;20477;-58
2023/09/05 01:20:11;;;;;;;10.13;7.53;;;14.00;99.90;;;;;;5084227;28;20055;-57
2023/09/05 01:23:03;;;;;;;6.63;5.93;;;14.00;99.90;;;;;;5076336;28;20100;-57
2023/09/05 01:25:30;;;;;;;6.15;5.55;;;13.90;99.90;;;;;;5094815;28;20087;-57
2023/09/05 01:28:00;;;;;;;7.63;6.63;;;13.90;99.90;;;;;;5105416;28;20112;-57
2023/09/05 01:30:29;;;;;;;9.07;6.83;;;13.90;99.90;;;;;;5088993;28;20135;-57
2023/09/05 01:32:55;;;;;;;9.20;6.80;;;13.90;99.90;;;;;;5056570;28;20048;-58
2023/09/05 01:35:21;;;;;;;7.70;6.43;;;13.90;99.90;;;;;;5073779;28;20062;-57
2023/09/05 01:37:49;;;;;;;9.23;7.50;;;13.90;99.90;;;;;;5070323;28;20060;-58
2023/09/05 01:40:15;;;;;;;9.43;6.53;;;13.80;99.90;;;;;;5064064;28;20056;-58
2023/09/05 01:42:40;;;;;;;8.35;7.45;;;13.80;99.90;;;;;;5104941;28;20064;-59
2023/09/05 01:45:06;;;;;;;9.48;8.25;;;13.90;99.90;;;;;;5087696;28;20060;-58
2023/09/05 01:47:32;;;;;;;10.95;8.60;;;13.90;99.90;;;;;;5054750;28;20058;-58
2023/09/05 01:49:58;;;;;;;11.93;7.78;;;14.00;99.90;;;;;;5048402;28;20049;-57
2023/09/05 01:52:23;;;;;;;10.50;8.10;;;14.00;99.90;;;;;;5078966;28;20068;-58
2023/09/05 01:54:50;;;;;;;11.35;7.55;;;14.00;99.90;;;;;;5071103;28;20460;-57
2023/09/05 01:57:15;;;;;;;8.20;7.05;;;14.00;99.90;;;;;;5065712;28;20060;-58
2023/09/05 01:59:41;;;;;;;7.70;6.90;;;13.80;99.90;;;;;;5090343;28;20114;-59
2023/09/05 02:02:07;;;;;;;7.70;6.25;;;13.80;99.90;;;;;;5092035;28;20052;-57
2023/09/05 02:04:32;;;;;;;7.95;6.28;;;13.80;99.90;;;;;;5084452;28;20521;-57
2023/09/05 02:06:58;;;;;;;10.30;7.85;;;13.70;99.90;;;;;;5085865;28;20702;-58
2023/09/05 02:09:24;;;;;;;7.53;6.72;;;13.70;99.90;;;;;;5090369;28;20090;-57
2023/09/05 02:11:49;;;;;;;9.20;6.50;;;13.70;99.90;;;;;;5068251;28;20060;-56
2023/09/05 02:14:15;;;;;;;8.45;6.28;;;13.70;99.90;;;;;;5089584;28;20055;-58
2023/09/05 02:16:41;;;;;;;7.85;7.00;;;13.70;99.90;;;;;;5088009;28;20055;-57
2023/09/05 02:19:06;;;;;;;10.88;7.70;;;13.70;99.90;;;;;;5090604;28;20055;-57
2023/09/05 02:21:32;;;;;;;7.70;7.00;;;13.70;99.90;;;;;;5086799;28;20055;-56
2023/09/05 02:23:58;;;;;;;8.48;7.30;;;13.70;99.90;;;;;;5095550;28;20051;-56
2023/09/05 02:26:23;;;;;;;11.65;8.15;;;13.70;99.90;;;;;;5054585;28;20048;-57
2023/09/05 02:28:49;;;;;;;9.27;7.32;;;13.70;99.90;;;;;;5060383;28;20135;-58
2023/09/05 02:31:15;;;;;;;10.40;7.65;;;13.60;99.90;;;;;;5092995;28;20501;-56
2023/09/05 02:33:40;;;;;;;7.85;6.47;;;13.50;99.90;;;;;;5092531;28;20106;-57
2023/09/05 02:36:08;;;;;;;8.48;7.53;;;13.50;99.90;;;;;;5091203;28;20564;-57
2023/09/05 02:38:35;;;;;;;10.18;7.15;;;13.50;99.90;;;;;;5083927;28;20048;-56
2023/09/05 02:41:04;;;;;;;8.10;7.13;;;13.40;99.90;;;;;;5084869;28;20059;-56
2023/09/05 02:43:30;;;;;;;8.27;7.47;;;13.40;99.90;;;;;;5068265;28;20086;-57
2023/09/05 02:45:56;;;;;;;8.38;7.40;;;13.40;99.90;;;;;;5060927;28;20076;-56
2023/09/05 02:48:22;;;;;;;10.00;8.10;;;13.40;99.90;;;;;;5097331;28;20059;-56
2023/09/05 02:50:47;;;;;;;7.88;6.95;;;13.40;99.90;;;;;;5080463;28;20093;-59
2023/09/05 02:53:13;;;;;;;10.48;8.00;;;13.40;99.90;;;;;;5086953;28;20051;-56
2023/09/05 02:55:45;;;;;;;10.88;8.18;;;13.40;99.90;;;;;;5061825;28;20114;-57
2023/09/05 02:58:11;;;;;;;8.77;7.50;;;13.40;99.90;;;;;;5062025;28;20109;-57
2023/09/05 03:00:37;;;;;;;9.50;7.65;;;13.50;99.90;;;;;;5068638;28;20056;-57
2023/09/05 03:03:04;;;;;;;8.65;7.30;;;13.50;99.90;;;;;;5081017;28;20063;-56
2023/09/05 03:05:30;;;;;;;10.45;7.82;;;13.50;99.90;;;;;;5083785;28;20498;-57
2023/09/05 03:07:55;;;;;;;8.82;7.70;;;13.50;99.90;;;;;;5089575;28;20108;-59
2023/09/05 03:10:21;;;;;;;8.07;7.22;;;13.50;99.90;;;;;;5089295;28;20171;-57
2023/09/05 03:12:47;;;;;;;10.13;7.50;;;13.50;99.90;;;;;;5083007;28;20051;-59
2023/09/05 03:15:18;;;;;;;8.70;7.30;;;13.40;99.90;;;;;;5088512;28;20497;-58
2023/09/05 03:17:45;;;;;;;10.77;7.47;;;13.30;99.90;;;;;;5067035;28;20130;-57
2023/09/05 03:20:12;;;;;;;9.43;8.48;;;13.30;99.90;;;;;;5082813;28;20524;-56
2023/09/05 03:22:38;;;;;;;8.88;7.25;;;13.30;99.90;;;;;;5084670;28;20160;-56
2023/09/05 03:25:04;;;;;;;11.45;7.68;;;13.30;99.90;;;;;;5083215;28;20075;-54
2023/09/05 03:27:30;;;;;;;9.18;8.10;;;13.20;99.90;;;;;;5081389;28;20070;-57
2023/09/05 03:29:55;;;;;;;8.73;7.82;;;13.20;99.90;;;;;;5067148;28;20044;-57
2023/09/05 03:32:21;;;;;;;11.75;9.00;;;13.20;99.90;;;;;;5082367;28;20060;-57
2023/09/05 03:34:48;;;;;;;10.48;7.85;;;13.20;99.90;;;;;;5084731;28;20132;-57
2023/09/05 03:37:15;;;;;;;11.52;7.72;;;13.20;99.90;;;;;;5074820;28;20055;-57
2023/09/05 03:39:41;;;;;;;9.90;8.60;;;13.20;99.90;;;;;;5065884;28;20044;-60
2023/09/05 03:42:07;;;;;;;8.30;7.15;;;13.10;99.90;;;;;;5083355;28;20056;-57
2023/09/05 03:44:33;;;;;;;9.68;8.10;;;13.10;99.90;;;;;;5083524;28;20063;-61
2023/09/05 03:46:58;;;;;;;11.18;8.48;;;13.10;99.90;;;;;;5083568;28;20066;-60
2023/09/05 03:49:24;;;;;;;8.23;7.30;;;13.10;99.90;;;;;;5080248;28;20407;-61
2023/09/05 03:51:50;;;;;;;9.73;8.23;;;13.10;99.90;;;;;;5062989;28;20133;-60
2023/09/05 03:54:15;;;;;;;9.27;8.38;;;13.10;99.90;;;;;;5083289;28;20516;-59
2023/09/05 03:56:41;;;;;;;14.90;8.10;;;13.10;99.90;;;;;;5088682;28;20060;-60
2023/09/05 03:59:07;;;;;;;12.43;9.02;;;13.10;99.90;;;;;;5083098;28;20143;-60
2023/09/05 04:01:33;;;;;;;10.05;8.45;;;13.10;99.90;;;;;;5086245;28;20052;-61
2023/09/05 04:03:58;;;;;;;11.32;8.18;;;13.10;99.90;;;;;;5088658;28;20047;-59
2023/09/05 04:06:24;;;;;;;10.13;8.13;;;13.10;99.90;;;;;;5085503;28;20513;-60
2023/09/05 04:08:50;;;;;;;9.15;7.82;;;13.10;99.90;;;;;;5087747;28;20506;-59
2023/09/05 04:11:15;;;;;;;11.70;8.40;;;13.00;99.90;;;;;;5067280;28;20052;-60
2023/09/05 04:13:44;;;;;;;9.63;8.48;;;13.10;99.90;;;;;;5070635;28;20063;-57
2023/09/05 04:16:10;;;;;;;12.65;8.48;;;13.00;99.90;;;;;;5086133;28;20155;-59
2023/09/05 04:18:36;;;;;;;9.60;8.60;;;13.00;99.90;;;;;;5069900;28;20504;-58
2023/09/05 04:21:03;;;;;;;9.07;7.82;;;13.00;99.90;;;;;;5053495;28;20048;-58
2023/09/05 04:23:29;;;;;;;10.82;7.05;;;13.00;99.90;;;;;;5084686;28;20063;-59
2023/09/05 04:25:57;;;;;;;12.07;8.00;;;13.00;99.90;;;;;;5070056;28;20112;-58
2023/09/05 04:28:24;;;;;;;10.93;7.80;;;12.90;99.90;;;;;;5085156;28;20044;-57
2023/09/05 04:30:51;;;;;;;11.55;9.07;;;12.90;99.90;;;;;;5087906;28;20063;-56
2023/09/05 04:33:16;;;;;;;10.77;8.60;;;12.90;99.90;;;;;;5067306;28;20052;-57
2023/09/05 04:35:42;;;;;;;9.80;8.27;;;12.90;99.90;;;;;;5069251;28;20063;-57
2023/09/05 04:38:09;;;;;;;9.23;7.47;;;12.90;99.90;;;;;;5084172;28;20104;-58
2023/09/05 04:40:35;;;;;;;11.50;9.30;;;12.90;99.90;;;;;;5069026;28;20062;-57
2023/09/05 04:43:04;;;;;;;9.95;8.10;;;12.90;99.90;;;;;;5065358;28;20494;-57
2023/09/05 04:45:32;;;;;;;10.20;8.27;;;12.90;99.90;;;;;;5060770;28;20053;-58
2023/09/05 04:47:58;;;;;;;12.15;8.88;;;12.90;99.90;;;;;;5044174;28;20052;-61
2023/09/05 04:50:25;;;;;;;11.52;8.90;;;12.90;99.90;;;;;;5078835;28;20060;-59
2023/09/05 04:52:51;;;;;;;9.02;8.05;;;12.90;99.90;;;;;;5082764;28;20067;-61
2023/09/05 04:55:16;;;;;;;10.40;9.07;;;12.80;99.90;;;;;;5081276;28;20056;-57
2023/09/05 04:57:42;;;;;;;11.80;9.30;;;12.80;99.90;;;;;;5088000;28;20063;-57
2023/09/05 05:00:13;;;;;;;11.13;9.57;;;12.90;99.90;;;;;;5073818;28;20599;-57
2023/09/05 05:02:39;;;;;;;11.57;9.80;;;12.90;99.90;;;;;;5055397;28;20618;-57
2023/09/05 05:05:07;;;;;;;13.15;8.52;;;12.90;99.90;;;;;;5081185;28;20059;-57
2023/09/05 05:07:32;;;;;;;10.23;7.70;;;12.90;99.90;;;;;;5043091;28;1140387;-59
2023/09/05 05:09:58;;;;;;;11.30;7.85;;;12.90;99.90;;;;;;5068032;28;20373;-58
2023/09/05 05:12:24;;;;;;;10.48;9.38;;;12.90;99.90;;;;;;5084013;28;20064;-58
2023/09/05 05:14:50;;;;;;;17.25;10.27;;;13.00;99.90;;;;;;5085445;28;20052;-59
2023/09/05 05:17:15;;;;;;;10.88;9.77;;;13.10;99.90;;;;;;5083281;28;20136;-57
2023/09/05 05:19:41;;;;;;;10.43;8.68;;;13.10;99.90;;;;;;5082868;28;20070;-58
2023/09/05 05:22:07;;;;;;;10.55;9.38;;;13.10;99.90;;;;;;5080585;28;20064;-57
2023/09/05 05:24:33;;;;;;;12.30;9.77;;;13.10;99.90;;;;;;5084140;28;20186;-57
2023/09/05 05:27:03;;;;;;;10.95;9.55;;;13.20;99.90;;;;;;5064208;28;20052;-59
2023/09/05 05:29:32;;;;;;;15.95;10.70;;;13.30;99.90;;;;;;5077592;28;20144;-58
2023/09/05 05:32:03;;;;;;;10.45;8.35;;;13.30;99.90;;;;;;5072638;28;20048;-57
2023/09/05 05:34:31;;;;;;;10.80;9.05;;;13.30;99.90;;;;;;5074783;28;20083;-58
2023/09/05 05:36:57;;;;;;;14.45;10.80;;;13.40;99.90;;;;;;5073560;28;20762;-57
2023/09/05 05:39:24;;;;;;;10.75;9.43;;;13.50;99.90;;;;;;5082606;28;20124;-58
2023/09/05 05:41:49;;;;;;;10.77;9.25;;;13.60;99.90;;;;;;5100166;28;20606;-57
2023/09/05 05:44:15;;;;;;;10.35;9.25;;;13.70;99.90;;;;;;5074114;28;20060;-57
2023/09/05 05:46:41;;;;;;;12.48;9.35;;;13.80;99.90;;;;;;5067382;28;20059;-58
2023/09/05 05:49:08;;;;;;;12.23;9.70;;;13.90;99.90;;;;;;5078631;28;20066;-58
2023/09/05 05:51:34;;;;;;;12.35;9.90;;;14.10;99.90;;;;;;5097181;28;20053;-58
2023/09/05 05:54:04;;;;;;;13.68;10.63;;;14.10;99.90;;;;;;5094650;28;20501;-55
2023/09/05 05:56:29;;;;;;;10.25;9.20;;;14.30;99.90;;;;;;5068794;28;21185;-57
2023/09/05 05:58:55;;;;;;;14.13;9.80;;;14.40;99.90;;;;;;5063935;28;20061;-57
2023/09/05 06:01:21;;;;;;;14.20;9.20;;;14.50;99.90;;;;;;5071334;28;20056;-61
2023/09/05 06:03:47;;;;;;;11.32;10.18;;;14.60;99.90;;;;;;5092473;28;20063;-61
2023/09/05 06:06:13;;;;;;;17.10;10.32;;;14.80;99.90;;;;;;5081044;28;20744;-61
2023/09/05 06:08:40;;;;;;;11.27;10.10;;;14.80;99.90;;;;;;5083594;28;20055;-62
2023/09/05 06:11:06;;;;;;;10.95;9.70;;;14.90;99.90;;;;;;5082674;28;20052;-62
2023/09/05 06:13:32;;;;;;;15.80;10.20;;;15.10;99.90;;;;;;5084596;28;20059;-61
2023/09/05 06:15:58;;;;;;;10.55;9.45;;;15.20;99.90;;;;;;5084736;28;20058;-61
2023/09/05 06:18:23;;;;;;;12.88;9.82;;;15.40;99.90;;;;;;5083187;28;20844;-59
2023/09/05 06:20:49;;;;;;;10.50;9.40;;;15.40;99.90;;;;;;5082363;28;20121;-60
2023/09/05 06:23:15;;;;;;;11.55;9.40;;;15.60;99.90;;;;;;5082898;28;20044;-56
2023/09/05 06:25:41;;;;;;;11.00;9.75;;;15.70;99.90;;;;;;5049948;28;20056;-57
2023/09/05 06:28:06;;;;;;;11.27;9.35;;;15.80;99.90;;;;;;5075954;28;20052;-57
2023/09/05 06:30:32;;;;;;;11.52;8.20;;;15.90;99.90;;;;;;5083496;28;20063;-58
2023/09/05 06:32:58;;;;;;;13.35;10.10;;;16.10;99.90;;;;;;5086120;28;20048;-57
2023/09/05 06:35:24;;;;;;;15.68;9.70;;;16.30;99.90;;;;;;5082572;28;20059;-57
2023/09/05 06:37:55;;;;;;;15.25;9.75;;;16.40;99.90;;;;;;5083798;28;20206;-57
2023/09/05 06:40:23;;;;;;;12.05;8.73;;;16.50;99.90;;;;;;5083004;28;20059;-57
2023/09/05 06:42:51;;;;;;;10.85;9.00;;;16.90;99.90;;;;;;5052260;28;20058;-57
2023/09/05 06:45:17;;;;;;;12.85;9.98;;;17.10;99.90;;;;;;5084799;28;20055;-57
2023/09/05 06:47:43;;;;;;;10.52;8.95;;;17.30;99.90;;;;;;5081350;28;20332;-57
2023/09/05 06:50:10;;;;;;;12.65;9.43;;;17.60;99.90;;;;;;5082506;28;20056;-58
2023/09/05 06:52:36;;;;;;;11.27;6.85;;;17.80;99.90;;;;;;5086256;28;20486;-58
2023/09/05 06:55:05;;;;;;;12.27;8.63;;;18.00;99.90;;;;;;5087087;28;20143;-58
2023/09/05 06:57:31;;;;;;;11.75;8.77;;;18.30;99.90;;;;;;5084197;28;20596;-58
2023/09/05 06:59:57;;;;;;;10.35;8.73;;;18.30;99.90;;;;;;5084181;28;20052;-59
2023/09/05 07:02:23;;;;;;;9.77;8.00;;;18.50;99.90;;;;;;5084371;28;20048;-58
2023/09/05 07:04:49;;;;;;;12.10;8.60;;;18.60;99.90;;;;;;5086847;28;20074;-61
2023/09/05 07:07:15;;;;;;;10.02;8.30;;;18.70;99.90;;;;;;5083944;28;20109;-60
2023/09/05 07:09:41;;;;;;;8.68;7.50;;;18.90;99.90;;;;;;5079494;28;20104;-58
2023/09/05 07:12:07;;;;;;;8.57;7.50;;;19.10;99.90;;;;;;5084632;28;20064;-57
2023/09/05 07:14:33;;;;;;;13.15;8.50;;;19.30;99.90;;;;;;5067069;28;20051;-57
2023/09/05 07:17:06;;;;;;;8.68;7.78;;;19.30;99.90;;;;;;5067318;28;20059;-57
2023/09/05 07:19:31;;;;;;;10.38;8.45;;;19.60;99.90;;;;;;5075582;28;20052;-57
2023/09/05 07:21:57;;;;;;;9.95;7.35;;;19.80;99.90;;;;;;5085937;28;20060;-57
2023/09/05 07:24:23;;;;;;;10.73;8.80;;;20.10;99.90;;;;;;5064202;28;20048;-58
2023/09/05 07:26:49;;;;;;;9.90;6.95;;;20.30;99.90;;;;;;5083130;28;20159;-57
2023/09/05 07:29:15;;;;;;;10.80;7.07;;;20.60;99.90;;;;;;5077449;28;20055;-57
2023/09/05 07:31:42;;;;;;;10.88;6.45;;;20.60;99.90;;;;;;5084094;28;20060;-57
2023/09/05 07:34:08;;;;;;;8.73;7.43;;;20.70;99.90;;;;;;5083921;28;20063;-57
2023/09/05 07:36:35;;;;;;;8.82;7.38;;;20.90;99.90;;;;;;5066411;28;20395;-58
2023/09/05 07:39:05;;;;;;;10.32;7.43;;;21.10;99.90;;;;;;5068134;28;20048;-57
2023/09/05 07:41:33;;;;;;;12.13;8.13;;;21.20;99.90;;;;;;5083807;28;20052;-62
2023/09/05 07:44:03;;;;;;;9.63;7.85;;;21.40;99.90;;;;;;5066947;28;20072;-58
2023/09/05 07:46:29;;;;;;;12.60;7.57;;;21.60;99.90;;;;;;5053450;28;20156;-59
2023/09/05 07:48:54;;;;;;;9.52;7.07;;;21.70;99.90;;;;;;5101256;28;20101;-57
2023/09/05 07:51:23;;;;;;;10.85;7.28;;;21.80;99.90;;;;;;5102665;28;20063;-62
2023/09/05 07:54:03;;;;;;;10.38;7.60;;;22.00;99.90;;;;;;5105725;28;20051;-59
2023/09/05 07:56:29;;;;;;;9.35;7.22;;;22.20;99.90;;;;;;5095526;28;20063;-57
2023/09/05 07:58:56;;;;;;;8.30;6.85;;;22.30;99.90;;;;;;5079827;28;20109;-65
2023/09/05 08:01:21;;;;;;;8.23;6.60;;;22.50;99.90;;;;;;5101059;28;20063;-57
2023/09/05 08:03:47;;;;;;;6.97;5.80;;;22.50;99.90;;;;;;5104744;28;20062;-58
2023/09/05 08:06:13;;;;;;;8.35;6.55;;;22.70;99.90;;;;;;5101314;28;20378;-57
2023/09/05 08:08:39;;;;;;;7.38;6.57;;;22.90;99.90;;;;;;5104697;28;20063;-64
2023/09/05 08:11:05;;;;;;;9.60;7.45;;;23.10;99.90;;;;;;5104843;28;20043;-59
2023/09/05 08:13:30;;;;;;;8.88;7.53;;;23.10;99.90;;;;;;5087340;28;20059;-57
2023/09/05 08:15:56;;;;;;;10.63;7.50;;;23.40;99.90;;;;;;5046245;28;20139;-58
2023/09/05 08:18:22;;;;;;;10.13;6.93;;;23.80;99.90;;;;;;5074886;28;20068;-58
2023/09/05 08:20:47;;;;;;;8.35;6.25;;;24.30;99.90;;;;;;5083163;28;20074;-65
2023/09/05 08:23:13;;;;;;;9.20;6.97;;;24.40;99.90;;;;;;5063029;28;20106;-64
2023/09/05 08:25:39;;;;;;;12.73;7.68;;;24.80;99.90;;;;;;5084124;28;20040;-64
2023/09/05 08:28:05;;;;;;;14.18;6.05;;;24.80;99.90;;;;;;5081398;28;20055;-66
2023/09/05 08:30:31;;;;;;;9.70;7.07;;;25.10;99.90;;;;;;5072557;28;20063;-61
2023/09/05 08:33:03;;;;;;;10.93;6.65;;;25.40;99.90;;;;;;5088707;28;20052;-58
2023/09/05 08:35:29;;;;;;;8.57;7.28;;;25.60;99.90;;;;;;5080054;28;20052;-59
2023/09/05 08:37:57;;;;;;;7.90;6.20;;;25.70;99.90;;;;;;5079183;28;20406;-58
2023/09/05 08:40:23;;;;;;;8.75;6.55;;;26.00;99.90;;;;;;5077396;28;20062;-58
2023/09/05 08:42:53;;;;;;;7.32;5.68;;;26.40;99.90;;;;;;5101400;28;20060;-58
2023/09/05 08:45:22;;;;;;;12.85;6.53;;;26.60;99.90;;;;;;5085118;28;20186;-58
2023/09/05 08:47:49;;;;;;;7.45;5.90;;;26.80;99.90;;;;;;5088251;28;20082;-58
2023/09/05 08:50:15;;;;;;;7.45;5.80;;;27.00;99.90;;;;;;5078616;28;20158;-58
2023/09/05 08:52:42;;;;;;;7.38;5.15;;;27.40;99.90;;;;;;5070609;28;20060;-57
2023/09/05 08:55:10;;;;;;;5.90;5.30;;;27.50;99.90;;;;;;5091799;28;20143;-57
2023/09/05 08:57:41;;;;;;;6.13;4.45;;;27.60;99.90;;;;;;5091280;28;20089;-58
2023/09/05 09:00:07;;;;;;;9.77;4.78;;;27.80;99.90;;;;;;5089318;28;20130;-57
2023/09/05 09:02:36;;;;;;;5.93;3.97;;;27.90;99.90;;;;;;5076549;28;20056;-58
2023/09/05 09:05:03;;;;;;;5.75;4.05;;;28.10;99.90;;;;;;5101426;27;20509;-58
2023/09/05 09:07:29;;;;;;;6.13;4.82;;;28.40;99.90;;;;;;5072324;28;20060;-58
2023/09/05 09:09:59;;;;;;;4.40;3.92;;;28.50;99.90;;;;;;5068448;28;20057;-58
2023/09/05 09:12:30;;;;;;;5.22;4.25;;;28.60;99.90;;;;;;5085847;28;20060;-59
2023/09/05 09:15:03;;;;;;;3.38;3.15;;;28.80;99.90;;;;;;5086218;28;20048;-58
2023/09/05 09:17:29;;;;;;;4.82;4.30;;;29.00;99.90;;;;;;5064608;28;20065;-58
2023/09/05 09:19:55;;;;;;;6.65;4.65;;;29.10;99.90;;;;;;5100899;28;20044;-58
2023/09/05 09:22:24;;;;;;;4.68;3.97;;;29.30;99.90;;;;;;5106458;28;20568;-59
2023/09/05 09:24:50;;;;;;;6.30;4.60;;;29.80;99.90;;;;;;5108949;28;20051;-59
2023/09/05 09:27:22;;;;;;;6.93;4.68;;;29.90;99.90;;;;;;5066995;28;1104003;-59
2023/09/05 09:29:54;;;;;;;3.95;3.55;;;30.00;99.90;;;;;;5108955;28;20058;-59
2023/09/05 09:32:22;;;;;;;5.30;4.65;;;30.10;99.90;;;;;;5103427;28;20524;-58
2023/09/05 09:34:49;;;;;;;4.55;4.15;;;30.00;99.90;;;;;;5103121;28;20446;-67
2023/09/05 09:37:24;;;;;;;4.70;4.20;;;30.40;99.90;;;;;;5105659;28;20139;-62
2023/09/05 09:39:50;;;;;;;6.97;4.10;;;30.40;99.90;;;;;;5108508;28;20552;-59
2023/09/05 09:42:23;;;;;;;5.28;4.38;;;30.40;99.90;;;;;;5078811;28;20056;-59
2023/09/05 09:44:52;;;;;;;4.28;3.53;;;30.60;99.90;;;;;;5106830;28;20141;-58
2023/09/05 09:47:18;;;;;;;5.45;3.40;;;30.70;99.90;;;;;;5105425;28;20146;-59
2023/09/05 09:49:47;;;;;;;4.57;2.42;;;31.00;99.90;;;;;;5066869;28;20070;-58
2023/09/05 09:52:16;;;;;;;2.90;2.70;;;30.90;99.90;;;;;;5084718;28;20538;-58
2023/09/05 09:54:44;;;;;;;2.65;2.45;;;31.20;99.90;;;;;;5075255;28;20153;-58
2023/09/05 09:57:15;;;;;;;3.67;2.72;;;31.20;99.90;;;;;;5106076;28;20062;-58
2023/09/05 09:59:57;;;;;;;2.70;2.45;;;31.00;99.90;;;;;;5108249;28;20099;-60
2023/09/05 10:02:25;;;;;;;2.55;1.88;;;31.10;99.90;;;;;;5105259;28;20504;-58
2023/09/05 10:04:51;;;;;;;3.70;2.85;;;31.00;99.90;;;;;;5105954;28;20131;-58
2023/09/05 10:07:19;;;;;;;2.13;1.85;;;30.70;99.90;;;;;;5104327;28;20075;-59
2023/09/05 10:09:45;;;;;;;2.47;1.98;;;31.20;99.90;;;;;;5107898;28;20097;-60
2023/09/05 10:12:12;;;;;;;2.60;2.33;;;31.10;99.90;;;;;;5097899;28;20055;-59
2023/09/05 10:14:40;;;;;;;3.30;2.28;;;31.20;99.90;;;;;;5100336;28;20501;-59
2023/09/05 10:17:05;;;;;;;2.58;2.38;;;31.00;99.90;;;;;;5093253;28;20059;-59
2023/09/05 10:19:32;;;;;;;2.08;1.98;;;31.60;99.90;;;;;;5087395;28;20062;-59
2023/09/05 10:21:59;;;;;;;2.60;2.17;;;31.70;99.90;;;;;;5105721;28;20059;-59
2023/09/05 10:24:28;;;;;;;2.15;1.95;;;31.70;99.90;;;;;;5103769;28;21201;-59
2023/09/05 10:26:54;;;;;;;3.58;2.08;;;31.60;99.90;;;;;;5110434;27;20055;-58
2023/09/05 10:29:43;;;;;;;2.97;2.45;;;31.70;99.90;;;;;;5099146;27;20101;-58
2023/09/05 10:32:13;;;;;;;3.65;1.73;;;32.00;99.90;;;;;;5085225;28;20076;-57
2023/09/05 10:34:48;;;;;;;5.00;2.40;;;32.00;99.90;;;;;;5105025;28;20058;-59
2023/09/05 10:37:15;;;;;;;2.17;1.95;;;32.50;99.90;;;;;;5103278;28;20113;-58
2023/09/05 10:39:54;;;;;;;3.90;1.98;;;32.10;99.90;;;;;;5086960;28;20126;-59
2023/09/05 10:42:31;;;;;;;3.75;2.15;;;32.20;99.90;;;;;;5088601;27;20047;-57
2023/09/05 10:45:03;;;;;;;2.20;2.10;;;32.20;99.90;;;;;;5104443;28;20113;-58
2023/09/05 10:47:33;;;;;;;2.10;1.80;;;31.90;99.90;;;;;;5091650;28;20048;-59
2023/09/05 10:50:03;;;;;;;2.28;1.55;;;32.30;99.90;;;;;;5105365;27;20134;-68
2023/09/05 10:52:29;;;;;;;3.55;1.92;;;32.30;99.90;;;;;;5104728;28;20052;-61
2023/09/05 10:54:56;;;;;;;2.83;1.77;;;32.10;99.90;;;;;;5104132;28;20047;-69
2023/09/05 10:57:36;;;;;;;2.00;1.80;;;32.40;99.90;;;;;;5104089;28;20119;-58
2023/09/05 11:02:31;;;;;;;1.58;1.48;;;32.10;99.90;;;;;;5102728;28;20054;-58
2023/09/05 11:04:57;;;;;;;2.05;1.67;;;31.90;99.90;;;;;;5079684;28;20504;-58
2023/09/05 11:07:23;;;;;;;2.22;1.58;;;32.50;99.90;;;;;;5104582;28;20054;-58
2023/09/05 11:09:54;;;;;;;5.05;1.63;;;32.50;99.90;;;;;;5097982;28;20043;-59
2023/09/05 11:12:20;;;;;;;2.08;1.67;;;32.10;99.90;;;;;;5110648;27;20482;-59
2023/09/05 11:14:46;;;;;;;1.80;1.45;;;32.30;99.90;;;;;;5100903;28;20509;-60
2023/09/05 11:17:15;;;;;;;1.55;1.45;;;32.50;99.90;;;;;;5104069;28;20117;-60
2023/09/05 11:19:47;;;;;;;2.03;1.45;;;32.50;99.90;;;;;;5106450;28;20131;-59
2023/09/05 11:22:22;;;;;;;1.30;1.20;;;32.40;99.90;;;;;;5104302;28;20090;-60
2023/09/05 11:25:07;;;;;;;2.40;1.48;;;33.70;99.90;;;;;;5087846;28;20056;-60
2023/09/05 11:27:33;;;;;;;2.47;1.63;;;36.10;99.70;;;;;;5109384;27;20112;-60
2023/09/05 11:30:04;;;;;;;5.07;1.50;;;38.20;98.40;;;;;;5106877;28;20063;-59
2023/09/05 11:32:36;;;;;;;1.92;1.40;;;39.00;97.00;;;;;;5074474;28;20052;-69
2023/09/05 11:35:04;;;;;;;2.25;1.60;;;39.70;95.90;;;;;;5076605;28;20058;-68
2023/09/05 11:37:30;;;;;;;1.33;1.10;;;41.40;95.30;;;;;;5082523;28;20064;-66
2023/09/05 11:40:03;;;;;;;1.60;1.50;;;40.70;94.00;;;;;;5089903;28;20052;-67
2023/09/05 11:42:32;;;;;;;1.33;1.23;;;41.70;93.60;;;;;;5096202;28;20108;-68
2023/09/05 11:44:58;;;;;;;1.95;1.08;;;41.10;92.60;;;;;;5087699;28;20051;-68
2023/09/05 11:47:26;;;;;;;6.60;3.83;;;41.30;92.20;;;;;;5087711;28;20048;-63
2023/09/05 11:49:56;;;;;;;4.90;1.85;;;42.80;92.00;;;;;;5104993;28;20059;-65
2023/09/05 11:52:23;;;;;;;2.83;1.77;;;42.40;91.00;;;;;;5103598;28;20085;-65
2023/09/05 11:54:51;;;;;;;2.75;1.70;;;42.60;90.40;;;;;;5087369;28;20578;-68
2023/09/05 11:57:21;;;;;;;3.72;1.88;;;42.40;90.60;;;;;;5103540;28;20450;-68
2023/09/05 11:59:47;;;;;;;2.17;1.27;;;42.50;90.20;;;;;;5106563;28;20082;-60
2023/09/05 12:02:18;;;;;;;3.15;1.65;;;42.50;89.80;;;;;;5103180;28;20545;-59
2023/09/05 12:04:46;;;;;;;2.45;1.50;;;43.10;90.10;;;;;;5083123;28;20052;-60
2023/09/05 12:07:11;;;;;;;2.55;1.35;;;42.60;89.50;;;;;;5100706;28;20050;-57
2023/09/05 12:09:38;;;;;;;1.27;1.08;;;40.90;90.00;;;;;;5088252;28;20056;-58
2023/09/05 12:12:15;;;;;;;2.33;1.50;;;39.60;90.30;;;;;;5105342;28;20052;-57
2023/09/05 12:14:49;;;;;;;2.13;1.50;;;37.80;90.80;;;;;;5105399;28;20051;-60
2023/09/05 12:17:19;;;;;;;2.03;1.42;;;37.30;92.00;;;;;;5086110;28;20047;-59
2023/09/05 12:19:47;;;;;;;2.83;1.55;;;36.40;92.40;;;;;;5101187;28;20040;-59
2023/09/05 12:22:30;;;;;;;1.20;0.98;;;36.20;93.80;;;;;;5105049;28;20724;-58
2023/09/05 12:25:03;;;;;;;2.35;0.98;;;35.80;94.30;;;;;;5099333;28;20067;-58
2023/09/05 12:27:29;;;;;;;1.65;1.45;;;35.70;94.10;;;;;;5056837;28;20051;-58
2023/09/05 12:29:55;;;;;;;2.97;1.52;;;35.20;94.50;;;;;;5093836;28;20063;-58
2023/09/05 12:32:26;;;;;;;3.67;1.95;;;35.10;95.30;;;;;;5091604;28;20761;-59
2023/09/05 12:34:53;;;;;;;1.50;1.40;;;35.00;94.40;;;;;;5099464;28;20056;-58
2023/09/05 12:37:19;;;;;;;3.95;1.63;;;35.10;95.60;;;;;;5082035;28;20064;-61
2023/09/05 12:39:45;;;;;;;2.47;1.63;;;35.20;94.50;;;;;;5096044;28;20051;-61
2023/09/05 12:42:11;;;;;;;1.90;1.63;;;35.00;95.50;;;;;;5083159;27;20052;-59
2023/09/05 12:44:39;;;;;;;1.90;1.50;;;35.00;96.10;;;;;;5096227;28;20402;-60
2023/09/05 12:47:05;;;;;;;1.67;1.48;;;34.60;96.00;;;;;;5097982;28;20465;-64
2023/09/05 12:49:31;;;;;;;1.55;1.45;;;34.70;95.70;;;;;;5098861;28;20150;-60